sensor_id;sensor_type;location;lat;lon;timestamp;P1;durP1;ratioP1;P2;durP2;ratioP2
53245;SDS011;39569;51.090;-1.786;2022-11-20T00:00:37;45.25;;;17.83;;
53245;SDS011;39569;51.090;-1.786;2022-11-20T00:04:03;31.80;;;15.85;;
53245;SDS011;39569;51.090;-1.786;2022-11-20T00:07:30;31.77;;;15.15;;
53245;SDS011;39569;51.090;-1.786;2022-11-20T00:10:55;25.90;;;16.33;;
53245;SDS011;39569;51.090;-1.786;2022-11-20T00:14:20;28.23;;;19.02;;
53245;SDS011;39569;51.090;-1.786;2022-11-20T00:17:46;25.77;;;19.83;;
53245;SDS011;39569;51.090;-1.786;2022-11-20T00:21:12;42.85;;;20.83;;
53245;SDS011;39569;51.090;-1.786;2022-11-20T00:24:39;34.13;;;17.90;;
53245;SDS011;39569;51.090;-1.786;2022-11-20T00:28:04;7.15;;;6.55;;
53245;SDS011;39569;51.090;-1.786;2022-11-20T00:31:30;34.00;;;18.27;;
53245;SDS011;39569;51.090;-1.786;2022-11-20T00:34:55;43.97;;;17.40;;
53245;SDS011;39569;51.090;-1.786;2022-11-20T00:38:25;27.60;;;16.52;;
53245;SDS011;39569;51.090;-1.786;2022-11-20T00:41:51;25.67;;;17.45;;
53245;SDS011;39569;51.090;-1.786;2022-11-20T00:45:17;15.73;;;7.40;;
53245;SDS011;39569;51.090;-1.786;2022-11-20T00:48:44;12.93;;;6.95;;
53245;SDS011;39569;51.090;-1.786;2022-11-20T00:52:09;25.77;;;15.30;;
53245;SDS011;39569;51.090;-1.786;2022-11-20T00:55:35;7.88;;;4.93;;
53245;SDS011;39569;51.090;-1.786;2022-11-20T00:59:01;25.83;;;15.13;;
53245;SDS011;39569;51.090;-1.786;2022-11-20T01:02:26;33.15;;;15.77;;
53245;SDS011;39569;51.090;-1.786;2022-11-20T01:05:52;16.92;;;8.73;;
53245;SDS011;39569;51.090;-1.786;2022-11-20T01:09:17;28.20;;;15.18;;
53245;SDS011;39569;51.090;-1.786;2022-11-20T01:12:42;20.63;;;15.13;;
53245;SDS011;39569;51.090;-1.786;2022-11-20T01:16:10;25.48;;;13.35;;
53245;SDS011;39569;51.090;-1.786;2022-11-20T01:19:36;17.30;;;13.05;;
53245;SDS011;39569;51.090;-1.786;2022-11-20T01:23:02;10.15;;;5.72;;
53245;SDS011;39569;51.090;-1.786;2022-11-20T01:26:29;17.77;;;12.15;;
53245;SDS011;39569;51.090;-1.786;2022-11-20T01:29:55;7.32;;;4.57;;
53245;SDS011;39569;51.090;-1.786;2022-11-20T01:33:21;18.50;;;11.88;;
53245;SDS011;39569;51.090;-1.786;2022-11-20T01:36:48;29.85;;;12.00;;
53245;SDS011;39569;51.090;-1.786;2022-11-20T01:40:14;11.00;;;4.47;;
53245;SDS011;39569;51.090;-1.786;2022-11-20T01:44:01;26.95;;;14.27;;
53245;SDS011;39569;51.090;-1.786;2022-11-20T01:47:33;26.67;;;11.82;;
53245;SDS011;39569;51.090;-1.786;2022-11-20T01:51:05;23.67;;;13.18;;
53245;SDS011;39569;51.090;-1.786;2022-11-20T01:54:38;21.13;;;14.13;;
53245;SDS011;39569;51.090;-1.786;2022-11-20T01:58:07;35.88;;;16.38;;
53245;SDS011;39569;51.090;-1.786;2022-11-20T02:01:34;5.75;;;5.35;;
53245;SDS011;39569;51.090;-1.786;2022-11-20T02:08:46;33.47;;;16.13;;
53245;SDS011;39569;51.090;-1.786;2022-11-20T02:12:12;19.27;;;13.73;;
53245;SDS011;39569;51.090;-1.786;2022-11-20T02:15:55;23.17;;;14.07;;
53245;SDS011;39569;51.090;-1.786;2022-11-20T02:19:22;28.55;;;12.00;;
53245;SDS011;39569;51.090;-1.786;2022-11-20T02:22:50;23.27;;;14.10;;
53245;SDS011;39569;51.090;-1.786;2022-11-20T02:26:23;23.10;;;12.77;;
53245;SDS011;39569;51.090;-1.786;2022-11-20T02:29:51;8.57;;;4.38;;
53245;SDS011;39569;51.090;-1.786;2022-11-20T02:33:17;4.22;;;2.75;;
53245;SDS011;39569;51.090;-1.786;2022-11-20T02:36:42;11.77;;;5.63;;
53245;SDS011;39569;51.090;-1.786;2022-11-20T02:40:09;14.13;;;4.47;;
53245;SDS011;39569;51.090;-1.786;2022-11-20T02:43:35;3.28;;;3.00;;
53245;SDS011;39569;51.090;-1.786;2022-11-20T02:47:00;26.08;;;9.48;;
53245;SDS011;39569;51.090;-1.786;2022-11-20T02:50:25;14.40;;;10.52;;
53245;SDS011;39569;51.090;-1.786;2022-11-20T02:53:51;13.75;;;9.48;;
53245;SDS011;39569;51.090;-1.786;2022-11-20T02:57:18;5.95;;;4.78;;
53245;SDS011;39569;51.090;-1.786;2022-11-20T03:00:43;16.60;;;11.93;;
53245;SDS011;39569;51.090;-1.786;2022-11-20T03:04:08;14.52;;;11.52;;
53245;SDS011;39569;51.090;-1.786;2022-11-20T03:07:34;16.85;;;11.35;;
53245;SDS011;39569;51.090;-1.786;2022-11-20T03:11:01;17.52;;;11.63;;
53245;SDS011;39569;51.090;-1.786;2022-11-20T03:14:28;14.43;;;11.55;;
53245;SDS011;39569;51.090;-1.786;2022-11-20T03:17:54;21.98;;;11.52;;
53245;SDS011;39569;51.090;-1.786;2022-11-20T03:21:19;12.50;;;4.15;;
53245;SDS011;39569;51.090;-1.786;2022-11-20T03:24:45;18.45;;;10.48;;
53245;SDS011;39569;51.090;-1.786;2022-11-20T03:28:10;13.57;;;9.25;;
53245;SDS011;39569;51.090;-1.786;2022-11-20T03:31:37;17.52;;;9.43;;
53245;SDS011;39569;51.090;-1.786;2022-11-20T03:35:03;7.65;;;3.92;;
53245;SDS011;39569;51.090;-1.786;2022-11-20T03:38:29;10.95;;;8.98;;
53245;SDS011;39569;51.090;-1.786;2022-11-20T03:41:54;10.27;;;8.48;;
53245;SDS011;39569;51.090;-1.786;2022-11-20T03:45:19;12.13;;;8.13;;
53245;SDS011;39569;51.090;-1.786;2022-11-20T03:48:46;8.90;;;6.70;;
53245;SDS011;39569;51.090;-1.786;2022-11-20T03:52:12;16.67;;;8.10;;
53245;SDS011;39569;51.090;-1.786;2022-11-20T03:55:37;7.68;;;5.63;;
53245;SDS011;39569;51.090;-1.786;2022-11-20T03:59:04;5.57;;;4.43;;
53245;SDS011;39569;51.090;-1.786;2022-11-20T04:02:30;4.53;;;3.58;;
53245;SDS011;39569;51.090;-1.786;2022-11-20T04:05:57;7.15;;;4.13;;
53245;SDS011;39569;51.090;-1.786;2022-11-20T04:09:25;7.05;;;3.58;;
53245;SDS011;39569;51.090;-1.786;2022-11-20T04:12:51;2.83;;;1.02;;
53245;SDS011;39569;51.090;-1.786;2022-11-20T04:16:17;4.68;;;3.15;;
53245;SDS011;39569;51.090;-1.786;2022-11-20T04:19:42;4.07;;;2.80;;
53245;SDS011;39569;51.090;-1.786;2022-11-20T04:23:09;3.88;;;3.35;;
53245;SDS011;39569;51.090;-1.786;2022-11-20T04:26:35;1.40;;;1.40;;
53245;SDS011;39569;51.090;-1.786;2022-11-20T04:30:00;5.78;;;2.92;;
53245;SDS011;39569;51.090;-1.786;2022-11-20T04:33:29;1.02;;;0.70;;
53245;SDS011;39569;51.090;-1.786;2022-11-20T04:36:55;5.40;;;2.45;;
53245;SDS011;39569;51.090;-1.786;2022-11-20T04:40:21;5.30;;;2.40;;
53245;SDS011;39569;51.090;-1.786;2022-11-20T04:43:48;0.70;;;0.70;;
53245;SDS011;39569;51.090;-1.786;2022-11-20T04:47:13;16.65;;;2.72;;
53245;SDS011;39569;51.090;-1.786;2022-11-20T04:50:39;0.60;;;0.60;;
53245;SDS011;39569;51.090;-1.786;2022-11-20T04:54:04;5.07;;;0.90;;
53245;SDS011;39569;51.090;-1.786;2022-11-20T04:57:31;2.55;;;0.90;;
53245;SDS011;39569;51.090;-1.786;2022-11-20T05:01:01;0.40;;;0.40;;
53245;SDS011;39569;51.090;-1.786;2022-11-20T05:04:26;1.77;;;0.93;;
53245;SDS011;39569;51.090;-1.786;2022-11-20T05:07:51;4.00;;;1.02;;
53245;SDS011;39569;51.090;-1.786;2022-11-20T05:11:18;0.80;;;0.80;;
53245;SDS011;39569;51.090;-1.786;2022-11-20T05:14:45;1.10;;;1.00;;
53245;SDS011;39569;51.090;-1.786;2022-11-20T05:18:10;0.98;;;0.98;;
53245;SDS011;39569;51.090;-1.786;2022-11-20T05:21:35;1.38;;;1.25;;
53245;SDS011;39569;51.090;-1.786;2022-11-20T05:25:00;1.27;;;0.95;;
53245;SDS011;39569;51.090;-1.786;2022-11-20T05:28:26;0.30;;;0.30;;
53245;SDS011;39569;51.090;-1.786;2022-11-20T05:31:53;0.80;;;0.80;;
53245;SDS011;39569;51.090;-1.786;2022-11-20T05:35:18;0.40;;;0.40;;
53245;SDS011;39569;51.090;-1.786;2022-11-20T05:38:44;0.73;;;0.60;;
53245;SDS011;39569;51.090;-1.786;2022-11-20T05:42:09;0.40;;;0.40;;
53245;SDS011;39569;51.090;-1.786;2022-11-20T05:45:34;1.48;;;0.80;;
53245;SDS011;39569;51.090;-1.786;2022-11-20T05:49:01;0.35;;;0.35;;
53245;SDS011;39569;51.090;-1.786;2022-11-20T05:52:27;3.28;;;0.82;;
53245;SDS011;39569;51.090;-1.786;2022-11-20T05:55:56;0.60;;;0.60;;
53245;SDS011;39569;51.090;-1.786;2022-11-20T05:59:21;6.25;;;1.80;;
53245;SDS011;39569;51.090;-1.786;2022-11-20T06:02:47;7.38;;;2.13;;
53245;SDS011;39569;51.090;-1.786;2022-11-20T06:06:14;0.50;;;0.50;;
53245;SDS011;39569;51.090;-1.786;2022-11-20T06:09:39;7.80;;;1.38;;
53245;SDS011;39569;51.090;-1.786;2022-11-20T06:13:05;11.15;;;2.95;;
53245;SDS011;39569;51.090;-1.786;2022-11-20T06:16:30;12.75;;;3.42;;
53245;SDS011;39569;51.090;-1.786;2022-11-20T06:19:55;1.38;;;1.27;;
53245;SDS011;39569;51.090;-1.786;2022-11-20T06:23:29;17.55;;;4.90;;
53245;SDS011;39569;51.090;-1.786;2022-11-20T06:26:55;1.02;;;1.02;;
53245;SDS011;39569;51.090;-1.786;2022-11-20T06:30:20;8.98;;;3.33;;
53245;SDS011;39569;51.090;-1.786;2022-11-20T06:33:47;13.95;;;3.58;;
53245;SDS011;39569;51.090;-1.786;2022-11-20T06:37:12;27.25;;;4.45;;
53245;SDS011;39569;51.090;-1.786;2022-11-20T06:40:40;22.85;;;4.60;;
53245;SDS011;39569;51.090;-1.786;2022-11-20T06:44:06;17.35;;;5.13;;
53245;SDS011;39569;51.090;-1.786;2022-11-20T06:47:32;23.00;;;5.25;;
53245;SDS011;39569;51.090;-1.786;2022-11-20T06:50:58;18.58;;;7.13;;
53245;SDS011;39569;51.090;-1.786;2022-11-20T06:54:23;22.70;;;5.68;;
53245;SDS011;39569;51.090;-1.786;2022-11-20T06:57:50;24.90;;;6.63;;
53245;SDS011;39569;51.090;-1.786;2022-11-20T07:01:15;21.10;;;6.78;;
53245;SDS011;39569;51.090;-1.786;2022-11-20T07:04:40;44.97;;;8.25;;
53245;SDS011;39569;51.090;-1.786;2022-11-20T07:08:06;34.10;;;9.07;;
53245;SDS011;39569;51.090;-1.786;2022-11-20T07:11:31;35.38;;;7.60;;
53245;SDS011;39569;51.090;-1.786;2022-11-20T07:14:58;25.30;;;2.70;;
53245;SDS011;39569;51.090;-1.786;2022-11-20T07:18:25;54.88;;;9.88;;
53245;SDS011;39569;51.090;-1.786;2022-11-20T07:21:50;49.53;;;9.95;;
53245;SDS011;39569;51.090;-1.786;2022-11-20T07:25:19;5.18;;;3.88;;
53245;SDS011;39569;51.090;-1.786;2022-11-20T07:28:44;6.20;;;2.08;;
53245;SDS011;39569;51.090;-1.786;2022-11-20T07:32:11;5.47;;;2.15;;
53245;SDS011;39569;51.090;-1.786;2022-11-20T07:35:37;10.88;;;2.22;;
53245;SDS011;39569;51.090;-1.786;2022-11-20T07:39:02;43.67;;;9.88;;
53245;SDS011;39569;51.090;-1.786;2022-11-20T07:42:28;69.65;;;10.45;;
53245;SDS011;39569;51.090;-1.786;2022-11-20T07:45:54;42.03;;;9.77;;
53245;SDS011;39569;51.090;-1.786;2022-11-20T07:49:21;53.53;;;11.50;;
53245;SDS011;39569;51.090;-1.786;2022-11-20T07:52:46;42.70;;;11.05;;
53245;SDS011;39569;51.090;-1.786;2022-11-20T07:56:12;43.95;;;11.57;;
53245;SDS011;39569;51.090;-1.786;2022-11-20T07:59:37;33.10;;;9.32;;
53245;SDS011;39569;51.090;-1.786;2022-11-20T08:03:03;62.47;;;12.65;;
53245;SDS011;39569;51.090;-1.786;2022-11-20T08:06:30;8.48;;;2.88;;
53245;SDS011;39569;51.090;-1.786;2022-11-20T08:09:55;6.80;;;3.10;;
53245;SDS011;39569;51.090;-1.786;2022-11-20T08:13:41;9.80;;;3.40;;
53245;SDS011;39569;51.090;-1.786;2022-11-20T08:17:05;44.58;;;10.25;;
53245;SDS011;39569;51.090;-1.786;2022-11-20T08:20:31;40.58;;;9.95;;
53245;SDS011;39569;51.090;-1.786;2022-11-20T08:23:58;42.67;;;10.20;;
53245;SDS011;39569;51.090;-1.786;2022-11-20T08:27:23;44.40;;;13.68;;
53245;SDS011;39569;51.090;-1.786;2022-11-20T08:30:49;43.95;;;10.52;;
53245;SDS011;39569;51.090;-1.786;2022-11-20T08:34:14;35.28;;;9.18;;
53245;SDS011;39569;51.090;-1.786;2022-11-20T08:37:41;44.72;;;11.60;;
53245;SDS011;39569;51.090;-1.786;2022-11-20T08:41:06;61.97;;;13.40;;
53245;SDS011;39569;51.090;-1.786;2022-11-20T08:44:32;68.60;;;14.60;;
53245;SDS011;39569;51.090;-1.786;2022-11-20T08:47:59;45.72;;;12.90;;
53245;SDS011;39569;51.090;-1.786;2022-11-20T08:51:25;18.13;;;5.07;;
53245;SDS011;39569;51.090;-1.786;2022-11-20T08:54:51;62.67;;;12.18;;
53245;SDS011;39569;51.090;-1.786;2022-11-20T08:58:17;5.15;;;1.60;;
53245;SDS011;39569;51.090;-1.786;2022-11-20T09:01:42;72.72;;;13.13;;
53245;SDS011;39569;51.090;-1.786;2022-11-20T09:05:07;9.82;;;4.43;;
53245;SDS011;39569;51.090;-1.786;2022-11-20T09:08:33;22.45;;;5.72;;
53245;SDS011;39569;51.090;-1.786;2022-11-20T09:12:00;46.85;;;11.95;;
53245;SDS011;39569;51.090;-1.786;2022-11-20T09:15:26;19.83;;;7.20;;
53245;SDS011;39569;51.090;-1.786;2022-11-20T09:18:51;58.38;;;11.88;;
53245;SDS011;39569;51.090;-1.786;2022-11-20T09:22:17;61.00;;;13.32;;
53245;SDS011;39569;51.090;-1.786;2022-11-20T09:25:43;55.50;;;14.27;;
53245;SDS011;39569;51.090;-1.786;2022-11-20T09:29:09;55.25;;;14.32;;
53245;SDS011;39569;51.090;-1.786;2022-11-20T09:32:35;5.20;;;4.68;;
53245;SDS011;39569;51.090;-1.786;2022-11-20T09:36:01;57.03;;;13.68;;
53245;SDS011;39569;51.090;-1.786;2022-11-20T09:39:27;61.63;;;15.07;;
53245;SDS011;39569;51.090;-1.786;2022-11-20T09:42:55;53.47;;;13.52;;
53245;SDS011;39569;51.090;-1.786;2022-11-20T09:46:32;61.42;;;14.90;;
53245;SDS011;39569;51.090;-1.786;2022-11-20T09:50:14;54.50;;;12.25;;
53245;SDS011;39569;51.090;-1.786;2022-11-20T09:54:02;51.13;;;13.07;;
53245;SDS011;39569;51.090;-1.786;2022-11-20T09:57:35;45.10;;;12.45;;
53245;SDS011;39569;51.090;-1.786;2022-11-20T10:01:08;33.13;;;11.73;;
53245;SDS011;39569;51.090;-1.786;2022-11-20T10:04:43;36.58;;;11.90;;
53245;SDS011;39569;51.090;-1.786;2022-11-20T10:08:13;46.20;;;13.02;;
53245;SDS011;39569;51.090;-1.786;2022-11-20T10:11:50;30.65;;;10.70;;
53245;SDS011;39569;51.090;-1.786;2022-11-20T10:15:28;36.25;;;12.30;;
53245;SDS011;39569;51.090;-1.786;2022-11-20T10:19:08;30.00;;;10.85;;
53245;SDS011;39569;51.090;-1.786;2022-11-20T10:22:46;34.40;;;10.20;;
53245;SDS011;39569;51.090;-1.786;2022-11-20T10:26:26;36.75;;;10.52;;
53245;SDS011;39569;51.090;-1.786;2022-11-20T10:30:11;29.50;;;10.23;;
53245;SDS011;39569;51.090;-1.786;2022-11-20T10:33:41;32.75;;;9.35;;
53245;SDS011;39569;51.090;-1.786;2022-11-20T10:37:14;26.38;;;9.57;;
53245;SDS011;39569;51.090;-1.786;2022-11-20T10:40:45;32.30;;;11.05;;
53245;SDS011;39569;51.090;-1.786;2022-11-20T10:44:15;36.22;;;11.50;;
53245;SDS011;39569;51.090;-1.786;2022-11-20T10:47:46;37.53;;;11.05;;
53245;SDS011;39569;51.090;-1.786;2022-11-20T10:51:15;42.63;;;10.10;;
53245;SDS011;39569;51.090;-1.786;2022-11-20T10:54:49;39.75;;;10.48;;
53245;SDS011;39569;51.090;-1.786;2022-11-20T10:58:23;32.33;;;10.15;;
53245;SDS011;39569;51.090;-1.786;2022-11-20T11:02:14;34.28;;;11.25;;
53245;SDS011;39569;51.090;-1.786;2022-11-20T11:05:48;18.65;;;6.35;;
53245;SDS011;39569;51.090;-1.786;2022-11-20T11:09:16;25.38;;;9.57;;
53245;SDS011;39569;51.090;-1.786;2022-11-20T11:12:44;31.80;;;9.23;;
53245;SDS011;39569;51.090;-1.786;2022-11-20T11:16:16;25.52;;;9.57;;
53245;SDS011;39569;51.090;-1.786;2022-11-20T11:19:58;23.00;;;7.38;;
53245;SDS011;39569;51.090;-1.786;2022-11-20T11:23:33;27.52;;;10.45;;
53245;SDS011;39569;51.090;-1.786;2022-11-20T11:27:00;30.52;;;7.78;;
53245;SDS011;39569;51.090;-1.786;2022-11-20T11:30:27;33.92;;;10.27;;
53245;SDS011;39569;51.090;-1.786;2022-11-20T11:34:03;43.42;;;13.30;;
53245;SDS011;39569;51.090;-1.786;2022-11-20T11:37:32;23.13;;;6.53;;
53245;SDS011;39569;51.090;-1.786;2022-11-20T11:41:01;44.50;;;9.63;;
53245;SDS011;39569;51.090;-1.786;2022-11-20T11:44:28;26.20;;;9.07;;
53245;SDS011;39569;51.090;-1.786;2022-11-20T11:51:21;39.83;;;11.63;;
53245;SDS011;39569;51.090;-1.786;2022-11-20T11:54:51;26.65;;;8.23;;
53245;SDS011;39569;51.090;-1.786;2022-11-20T11:58:27;36.55;;;9.38;;
53245;SDS011;39569;51.090;-1.786;2022-11-20T12:02:01;30.67;;;8.35;;
53245;SDS011;39569;51.090;-1.786;2022-11-20T12:05:35;24.95;;;8.80;;
53245;SDS011;39569;51.090;-1.786;2022-11-20T12:09:04;23.75;;;8.95;;
53245;SDS011;39569;51.090;-1.786;2022-11-20T12:12:40;27.60;;;7.88;;
53245;SDS011;39569;51.090;-1.786;2022-11-20T12:16:11;36.40;;;11.27;;
53245;SDS011;39569;51.090;-1.786;2022-11-20T12:19:39;37.30;;;8.65;;
53245;SDS011;39569;51.090;-1.786;2022-11-20T12:23:08;24.48;;;7.68;;
53245;SDS011;39569;51.090;-1.786;2022-11-20T12:26:57;34.22;;;9.80;;
53245;SDS011;39569;51.090;-1.786;2022-11-20T12:30:38;36.15;;;9.15;;
53245;SDS011;39569;51.090;-1.786;2022-11-20T12:34:19;54.38;;;11.18;;
53245;SDS011;39569;51.090;-1.786;2022-11-20T12:38:01;28.55;;;9.38;;
53245;SDS011;39569;51.090;-1.786;2022-11-20T12:41:43;38.22;;;10.65;;
53245;SDS011;39569;51.090;-1.786;2022-11-20T12:49:26;29.05;;;8.25;;
53245;SDS011;39569;51.090;-1.786;2022-11-20T12:52:59;24.13;;;7.85;;
53245;SDS011;39569;51.090;-1.786;2022-11-20T12:56:39;24.58;;;9.52;;
53245;SDS011;39569;51.090;-1.786;2022-11-20T13:00:15;20.05;;;8.90;;
53245;SDS011;39569;51.090;-1.786;2022-11-20T13:04:03;24.58;;;7.75;;
53245;SDS011;39569;51.090;-1.786;2022-11-20T13:07:44;38.88;;;11.27;;
53245;SDS011;39569;51.090;-1.786;2022-11-20T13:11:14;31.73;;;9.20;;
53245;SDS011;39569;51.090;-1.786;2022-11-20T13:14:45;27.52;;;8.85;;
53245;SDS011;39569;51.090;-1.786;2022-11-20T13:18:19;40.22;;;9.98;;
53245;SDS011;39569;51.090;-1.786;2022-11-20T13:21:45;44.15;;;8.88;;
53245;SDS011;39569;51.090;-1.786;2022-11-20T13:25:21;12.77;;;4.63;;
53245;SDS011;39569;51.090;-1.786;2022-11-20T13:28:59;30.63;;;7.25;;
53245;SDS011;39569;51.090;-1.786;2022-11-20T13:32:28;29.63;;;6.72;;
53245;SDS011;39569;51.090;-1.786;2022-11-20T13:35:55;24.58;;;7.57;;
53245;SDS011;39569;51.090;-1.786;2022-11-20T13:39:25;15.57;;;6.15;;
53245;SDS011;39569;51.090;-1.786;2022-11-20T13:42:54;31.60;;;8.23;;
53245;SDS011;39569;51.090;-1.786;2022-11-20T13:46:20;21.23;;;7.93;;
53245;SDS011;39569;51.090;-1.786;2022-11-20T13:49:48;27.88;;;7.55;;
53245;SDS011;39569;51.090;-1.786;2022-11-20T13:53:25;29.00;;;8.07;;
53245;SDS011;39569;51.090;-1.786;2022-11-20T13:57:05;34.70;;;5.38;;
53245;SDS011;39569;51.090;-1.786;2022-11-20T14:00:43;24.58;;;5.22;;
53245;SDS011;39569;51.090;-1.786;2022-11-20T14:04:12;19.15;;;5.72;;
53245;SDS011;39569;51.090;-1.786;2022-11-20T14:07:46;20.45;;;5.85;;
53245;SDS011;39569;51.090;-1.786;2022-11-20T14:11:14;15.05;;;4.78;;
53245;SDS011;39569;51.090;-1.786;2022-11-20T14:14:46;9.85;;;3.63;;
53245;SDS011;39569;51.090;-1.786;2022-11-20T14:18:14;9.00;;;2.70;;
53245;SDS011;39569;51.090;-1.786;2022-11-20T14:22:07;8.75;;;2.72;;
53245;SDS011;39569;51.090;-1.786;2022-11-20T14:25:35;14.43;;;2.47;;
53245;SDS011;39569;51.090;-1.786;2022-11-20T14:29:02;5.93;;;2.88;;
53245;SDS011;39569;51.090;-1.786;2022-11-20T14:32:28;7.30;;;2.95;;
53245;SDS011;39569;51.090;-1.786;2022-11-20T14:35:54;12.77;;;3.97;;
53245;SDS011;39569;51.090;-1.786;2022-11-20T14:39:26;9.68;;;3.20;;
53245;SDS011;39569;51.090;-1.786;2022-11-20T14:42:55;8.90;;;3.10;;
53245;SDS011;39569;51.090;-1.786;2022-11-20T14:46:23;9.27;;;2.55;;
53245;SDS011;39569;51.090;-1.786;2022-11-20T14:49:51;9.80;;;4.03;;
53245;SDS011;39569;51.090;-1.786;2022-11-20T14:53:21;23.85;;;4.25;;
53245;SDS011;39569;51.090;-1.786;2022-11-20T14:56:54;14.02;;;4.22;;
53245;SDS011;39569;51.090;-1.786;2022-11-20T15:00:23;12.25;;;3.08;;
53245;SDS011;39569;51.090;-1.786;2022-11-20T15:04:01;15.75;;;3.47;;
53245;SDS011;39569;51.090;-1.786;2022-11-20T15:07:30;11.73;;;4.03;;
53245;SDS011;39569;51.090;-1.786;2022-11-20T15:10:56;12.35;;;4.80;;
53245;SDS011;39569;51.090;-1.786;2022-11-20T15:17:54;1.45;;;1.25;;
53245;SDS011;39569;51.090;-1.786;2022-11-20T15:21:20;19.83;;;3.90;;
53245;SDS011;39569;51.090;-1.786;2022-11-20T15:24:46;12.27;;;5.25;;
53245;SDS011;39569;51.090;-1.786;2022-11-20T15:28:15;29.98;;;5.38;;
53245;SDS011;39569;51.090;-1.786;2022-11-20T15:31:43;7.78;;;2.88;;
53245;SDS011;39569;51.090;-1.786;2022-11-20T15:35:09;12.27;;;3.80;;
53245;SDS011;39569;51.090;-1.786;2022-11-20T15:38:35;10.52;;;3.90;;
53245;SDS011;39569;51.090;-1.786;2022-11-20T15:42:01;14.27;;;4.40;;
53245;SDS011;39569;51.090;-1.786;2022-11-20T15:52:23;17.05;;;3.58;;
53245;SDS011;39569;51.090;-1.786;2022-11-20T15:55:48;17.05;;;5.28;;
53245;SDS011;39569;51.090;-1.786;2022-11-20T15:59:13;18.33;;;4.90;;
53245;SDS011;39569;51.090;-1.786;2022-11-20T16:02:41;12.30;;;4.22;;
53245;SDS011;39569;51.090;-1.786;2022-11-20T16:06:06;9.80;;;1.85;;
53245;SDS011;39569;51.090;-1.786;2022-11-20T16:09:31;12.75;;;1.73;;
53245;SDS011;39569;51.090;-1.786;2022-11-20T16:12:57;26.25;;;6.05;;
53245;SDS011;39569;51.090;-1.786;2022-11-20T16:16:39;13.23;;;4.75;;
53245;SDS011;39569;51.090;-1.786;2022-11-20T16:20:15;27.52;;;5.93;;
53245;SDS011;39569;51.090;-1.786;2022-11-20T16:23:40;13.55;;;5.47;;
53245;SDS011;39569;51.090;-1.786;2022-11-20T16:27:06;32.30;;;7.45;;
53245;SDS011;39569;51.090;-1.786;2022-11-20T16:30:32;39.60;;;7.43;;
53245;SDS011;39569;51.090;-1.786;2022-11-20T16:33:58;30.48;;;8.35;;
53245;SDS011;39569;51.090;-1.786;2022-11-20T16:37:25;15.65;;;5.13;;
53245;SDS011;39569;51.090;-1.786;2022-11-20T16:40:50;21.00;;;6.65;;
53245;SDS011;39569;51.090;-1.786;2022-11-20T16:44:15;32.78;;;5.55;;
53245;SDS011;39569;51.090;-1.786;2022-11-20T16:47:41;18.48;;;7.55;;
53245;SDS011;39569;51.090;-1.786;2022-11-20T16:51:07;20.05;;;5.57;;
53245;SDS011;39569;51.090;-1.786;2022-11-20T16:54:34;25.52;;;7.63;;
53245;SDS011;39569;51.090;-1.786;2022-11-20T16:57:59;4.57;;;4.03;;
53245;SDS011;39569;51.090;-1.786;2022-11-20T17:01:26;31.10;;;7.45;;
53245;SDS011;39569;51.090;-1.786;2022-11-20T17:04:52;27.67;;;7.15;;
53245;SDS011;39569;51.090;-1.786;2022-11-20T17:08:17;18.55;;;6.43;;
53245;SDS011;39569;51.090;-1.786;2022-11-20T17:11:44;33.05;;;8.48;;
53245;SDS011;39569;51.090;-1.786;2022-11-20T17:15:09;25.08;;;8.18;;
53245;SDS011;39569;51.090;-1.786;2022-11-20T17:18:36;4.40;;;2.67;;
53245;SDS011;39569;51.090;-1.786;2022-11-20T17:22:02;31.27;;;9.23;;
53245;SDS011;39569;51.090;-1.786;2022-11-20T17:25:27;22.23;;;8.18;;
53245;SDS011;39569;51.090;-1.786;2022-11-20T17:28:57;8.77;;;1.63;;
53245;SDS011;39569;51.090;-1.786;2022-11-20T17:32:23;5.23;;;1.33;;
53245;SDS011;39569;51.090;-1.786;2022-11-20T17:35:48;6.15;;;1.95;;
53245;SDS011;39569;51.090;-1.786;2022-11-20T17:39:14;26.30;;;7.18;;
53245;SDS011;39569;51.090;-1.786;2022-11-20T17:42:40;26.50;;;7.07;;
53245;SDS011;39569;51.090;-1.786;2022-11-20T17:46:08;27.90;;;7.15;;
53245;SDS011;39569;51.090;-1.786;2022-11-20T17:49:34;5.32;;;2.42;;
53245;SDS011;39569;51.090;-1.786;2022-11-20T17:52:59;19.55;;;7.63;;
53245;SDS011;39569;51.090;-1.786;2022-11-20T17:56:26;20.27;;;6.80;;
53245;SDS011;39569;51.090;-1.786;2022-11-20T18:00:12;27.20;;;7.50;;
53245;SDS011;39569;51.090;-1.786;2022-11-20T18:03:39;31.27;;;7.97;;
53245;SDS011;39569;51.090;-1.786;2022-11-20T18:07:04;16.98;;;4.90;;
53245;SDS011;39569;51.090;-1.786;2022-11-20T18:10:30;7.35;;;3.53;;
53245;SDS011;39569;51.090;-1.786;2022-11-20T18:17:24;27.85;;;7.78;;
53245;SDS011;39569;51.090;-1.786;2022-11-20T18:20:51;18.52;;;6.22;;
53245;SDS011;39569;51.090;-1.786;2022-11-20T18:27:42;19.23;;;6.10;;
53245;SDS011;39569;51.090;-1.786;2022-11-20T18:31:07;19.25;;;6.68;;
53245;SDS011;39569;51.090;-1.786;2022-11-20T18:34:34;26.95;;;5.97;;
53245;SDS011;39569;51.090;-1.786;2022-11-20T18:37:59;7.63;;;3.08;;
53245;SDS011;39569;51.090;-1.786;2022-11-20T18:41:26;20.67;;;7.50;;
53245;SDS011;39569;51.090;-1.786;2022-11-20T18:45:10;14.68;;;7.05;;
53245;SDS011;39569;51.090;-1.786;2022-11-20T18:48:35;22.70;;;6.57;;
53245;SDS011;39569;51.090;-1.786;2022-11-20T18:52:02;35.10;;;7.38;;
53245;SDS011;39569;51.090;-1.786;2022-11-20T18:55:27;20.67;;;6.78;;
53245;SDS011;39569;51.090;-1.786;2022-11-20T18:58:52;22.60;;;6.15;;
53245;SDS011;39569;51.090;-1.786;2022-11-20T19:02:18;22.17;;;6.60;;
53245;SDS011;39569;51.090;-1.786;2022-11-20T19:05:45;40.40;;;9.80;;
53245;SDS011;39569;51.090;-1.786;2022-11-20T19:09:13;23.25;;;10.13;;
53245;SDS011;39569;51.090;-1.786;2022-11-20T19:12:38;46.13;;;16.40;;
53245;SDS011;39569;51.090;-1.786;2022-11-20T19:16:04;41.17;;;15.73;;
53245;SDS011;39569;51.090;-1.786;2022-11-20T19:19:30;37.15;;;18.92;;
53245;SDS011;39569;51.090;-1.786;2022-11-20T19:22:57;25.75;;;7.72;;
53245;SDS011;39569;51.090;-1.786;2022-11-20T19:26:23;13.60;;;6.50;;
53245;SDS011;39569;51.090;-1.786;2022-11-20T19:29:49;35.47;;;16.85;;
53245;SDS011;39569;51.090;-1.786;2022-11-20T19:33:14;48.53;;;34.80;;
53245;SDS011;39569;51.090;-1.786;2022-11-20T19:36:40;53.17;;;27.50;;
53245;SDS011;39569;51.090;-1.786;2022-11-20T19:40:08;14.32;;;5.53;;
53245;SDS011;39569;51.090;-1.786;2022-11-20T19:43:33;9.57;;;8.70;;
53245;SDS011;39569;51.090;-1.786;2022-11-20T19:46:59;45.55;;;21.65;;
53245;SDS011;39569;51.090;-1.786;2022-11-20T19:50:24;20.77;;;7.15;;
53245;SDS011;39569;51.090;-1.786;2022-11-20T19:53:50;35.88;;;19.60;;
53245;SDS011;39569;51.090;-1.786;2022-11-20T19:57:17;38.45;;;19.35;;
53245;SDS011;39569;51.090;-1.786;2022-11-20T20:00:43;6.38;;;5.00;;
53245;SDS011;39569;51.090;-1.786;2022-11-20T20:04:08;12.13;;;4.82;;
53245;SDS011;39569;51.090;-1.786;2022-11-20T20:07:33;41.90;;;17.88;;
53245;SDS011;39569;51.090;-1.786;2022-11-20T20:10:59;17.88;;;8.85;;
53245;SDS011;39569;51.090;-1.786;2022-11-20T20:14:26;27.38;;;7.20;;
53245;SDS011;39569;51.090;-1.786;2022-11-20T20:17:51;16.42;;;8.55;;
53245;SDS011;39569;51.090;-1.786;2022-11-20T20:21:19;44.03;;;20.30;;
53245;SDS011;39569;51.090;-1.786;2022-11-20T20:24:44;20.83;;;10.25;;
53245;SDS011;39569;51.090;-1.786;2022-11-20T20:28:12;21.70;;;7.50;;
53245;SDS011;39569;51.090;-1.786;2022-11-20T20:31:39;16.70;;;9.70;;
53245;SDS011;39569;51.090;-1.786;2022-11-20T20:35:05;26.08;;;7.88;;
53245;SDS011;39569;51.090;-1.786;2022-11-20T20:38:31;53.92;;;26.65;;
53245;SDS011;39569;51.090;-1.786;2022-11-20T20:41:56;14.27;;;9.80;;
53245;SDS011;39569;51.090;-1.786;2022-11-20T20:45:22;8.85;;;7.95;;